createdAt,value
2022-08-03T00:00:41.336Z,56.07
2022-08-03T00:03:09.498Z,55.61
2022-08-03T00:05:38.339Z,55.30
2022-08-03T00:08:06.871Z,55.57
2022-08-03T00:10:36.561Z,55.27
2022-08-03T00:13:05.211Z,55.37
2022-08-03T00:15:33.391Z,55.32
2022-08-03T00:18:01.569Z,55.56
2022-08-03T00:20:30.044Z,55.65
2022-08-03T00:22:58.387Z,56.39
2022-08-03T00:25:26.760Z,56.72
2022-08-03T00:27:56.203Z,57.15
2022-08-03T00:30:26.914Z,57.52
2022-08-03T00:33:00.360Z,58.00
2022-08-03T00:35:36.661Z,58.44
2022-08-03T00:38:13.987Z,58.99
2022-08-03T00:40:42.170Z,59.93
2022-08-03T00:43:11.899Z,60.36
2022-08-03T00:45:41.466Z,60.77
2022-08-03T00:48:19.512Z,61.16
2022-08-03T00:51:00.226Z,61.52
2022-08-03T00:53:29.354Z,62.07
2022-08-03T00:55:57.628Z,62.57
2022-08-03T00:58:27.433Z,62.34
2022-08-03T01:00:55.992Z,62.13
2022-08-03T01:03:24.258Z,62.77
2022-08-03T01:06:00.140Z,62.58
2022-08-03T01:08:41.422Z,62.33
2022-08-03T01:11:19.169Z,62.11
2022-08-03T01:14:03.447Z,61.97
2022-08-03T01:16:54.133Z,62.39
2022-08-03T01:19:37.952Z,62.93
2022-08-03T01:22:19.621Z,64.39
2022-08-03T01:24:57.734Z,64.81
2022-08-03T01:27:43.977Z,65.26
2022-08-03T01:30:14.032Z,65.61
2022-08-03T01:33:02.916Z,65.87
2022-08-03T01:35:40.318Z,66.34
2022-08-03T01:38:13.634Z,66.74
2022-08-03T01:40:45.642Z,67.22
2022-08-03T01:44:03.041Z,67.48
2022-08-03T01:46:09.031Z,68.03
2022-08-03T01:48:39.188Z,67.65
2022-08-03T01:51:08.150Z,68.09
2022-08-03T01:53:38.398Z,67.90
2022-08-03T01:56:08.670Z,66.73
2022-08-03T01:58:38.641Z,66.52
2022-08-03T02:01:10.514Z,67.06
2022-08-03T02:04:00.792Z,68.06
2022-08-03T02:07:01.586Z,68.26
2022-08-03T02:09:23.309Z,68.21
2022-08-03T02:11:53.505Z,66.83
2022-08-03T02:14:23.981Z,66.02
2022-08-03T02:16:55.327Z,66.33
2022-08-03T02:19:26.125Z,66.51
2022-08-03T02:21:56.271Z,66.55
2022-08-03T02:24:29.439Z,66.20
2022-08-03T02:26:58.747Z,65.48
2022-08-03T02:29:39.213Z,64.90
2022-08-03T02:32:13.758Z,65.32
2022-08-03T02:34:46.613Z,65.86
2022-08-03T02:37:16.914Z,64.89
2022-08-03T02:39:47.998Z,64.79
2022-08-03T02:42:18.464Z,64.18
2022-08-03T02:44:51.133Z,63.83
2022-08-03T02:47:22.634Z,63.70
2022-08-03T02:49:52.792Z,63.67
2022-08-03T02:52:24.380Z,64.09
2022-08-03T02:54:56.378Z,64.58
2022-08-03T02:57:28.132Z,64.55
2022-08-03T02:59:58.508Z,64.51
2022-08-03T03:02:30.233Z,64.00
2022-08-03T03:05:52.794Z,64.27
2022-08-03T03:07:51.812Z,64.04
2022-08-03T03:10:23.184Z,63.70
2022-08-03T03:12:54.754Z,63.73
2022-08-03T03:15:23.491Z,63.16
2022-08-03T03:17:54.723Z,62.61
2022-08-03T03:20:29.871Z,62.95
2022-08-03T03:23:02.051Z,62.98
2022-08-03T03:25:32.305Z,63.23
2022-08-03T03:28:01.364Z,63.41
2022-08-03T03:30:32.134Z,64.26
2022-08-03T03:33:02.874Z,64.33
2022-08-03T03:35:31.193Z,65.01
2022-08-03T03:38:07.093Z,65.22
2022-08-03T03:40:36.922Z,65.34
2022-08-03T03:43:08.469Z,64.44
2022-08-03T03:45:37.481Z,64.04
2022-08-03T03:48:08.366Z,63.67
2022-08-03T03:50:41.045Z,63.54
2022-08-03T03:53:11.582Z,64.06
2022-08-03T03:55:59.405Z,64.36
2022-08-03T03:58:28.720Z,63.09
2022-08-03T04:00:57.064Z,62.19
2022-08-03T04:03:27.920Z,61.31
2022-08-03T04:06:13.418Z,60.79
2022-08-03T04:09:14.007Z,60.53
2022-08-03T04:11:48.884Z,61.24
2022-08-03T04:14:21.761Z,61.21
2022-08-03T04:16:54.952Z,61.60
2022-08-03T04:19:43.917Z,61.20
2022-08-03T04:22:13.924Z,62.01
2022-08-03T04:24:48.164Z,62.37
2022-08-03T04:27:20.889Z,62.46
2022-08-03T04:29:53.008Z,62.23
2022-08-03T04:32:25.435Z,62.61
2022-08-03T04:34:55.497Z,62.11
2022-08-03T04:37:31.551Z,62.00
2022-08-03T04:40:03.069Z,61.42
2022-08-03T04:42:35.102Z,61.83
2022-08-03T04:45:06.788Z,61.67
2022-08-03T04:47:35.842Z,61.62
2022-08-03T04:50:11.889Z,61.39
2022-08-03T04:52:41.147Z,60.93
2022-08-03T04:55:10.075Z,59.99
2022-08-03T04:57:38.366Z,59.64
2022-08-03T05:00:07.581Z,60.00
2022-08-03T05:02:35.870Z,60.33
2022-08-03T05:05:05.806Z,60.87
2022-08-03T05:07:35.925Z,60.44
2022-08-03T05:10:14.729Z,60.38
2022-08-03T05:12:43.580Z,59.48
2022-08-03T05:15:12.325Z,58.84
2022-08-03T05:17:40.437Z,58.03
2022-08-03T05:20:11.860Z,58.02
2022-08-03T05:22:40.095Z,59.09
2022-08-03T05:25:08.984Z,57.75
2022-08-03T05:27:37.429Z,58.22
2022-08-03T05:30:30.382Z,58.62
2022-08-03T05:32:55.024Z,57.59
2022-08-03T05:35:57.956Z,56.55
2022-08-03T05:38:13.970Z,56.40
2022-08-03T05:40:57.542Z,56.86
2022-08-03T05:43:40.393Z,56.60
2022-08-03T05:46:12.963Z,56.11
2022-08-03T05:48:41.812Z,55.31
2022-08-03T05:51:12.606Z,55.63
2022-08-03T05:53:41.641Z,55.51
2022-08-03T05:56:14.443Z,54.88
2022-08-03T05:58:45.519Z,55.45
2022-08-03T06:01:13.877Z,55.08
2022-08-03T06:03:42.356Z,54.77
2022-08-03T06:06:12.064Z,55.21
2022-08-03T06:08:40.503Z,54.65
2022-08-03T06:11:08.899Z,54.95
2022-08-03T06:13:37.517Z,53.42
2022-08-03T06:16:06.566Z,53.50
2022-08-03T06:18:35.491Z,54.17
2022-08-03T06:21:14.771Z,54.14
2022-08-03T06:23:54.642Z,52.88
2022-08-03T06:26:28.666Z,51.63
2022-08-03T06:28:57.014Z,51.55
2022-08-03T06:31:32.668Z,51.78
2022-08-03T06:34:33.480Z,50.74
2022-08-03T06:36:58.483Z,50.57
2022-08-03T06:39:31.862Z,50.52
2022-08-03T06:42:00.006Z,49.67
2022-08-03T06:44:28.200Z,49.10
2022-08-03T06:46:56.564Z,48.42
2022-08-03T06:49:25.145Z,47.42
2022-08-03T06:52:05.933Z,47.77
2022-08-03T06:54:37.533Z,47.48
2022-08-03T06:57:08.371Z,47.30
2022-08-03T07:00:09.847Z,47.35
2022-08-03T07:02:24.867Z,48.49
2022-08-03T07:04:56.466Z,47.54
2022-08-03T07:07:24.609Z,47.06
2022-08-03T07:09:56.504Z,46.18
2022-08-03T07:12:27.331Z,45.91
2022-08-03T07:15:00.007Z,45.71
2022-08-03T07:17:29.174Z,46.12
2022-08-03T07:19:58.240Z,46.98
2022-08-03T07:22:27.809Z,46.44
2022-08-03T07:24:57.991Z,46.53
2022-08-03T07:27:28.654Z,46.39
2022-08-03T07:29:57.818Z,46.40
2022-08-03T07:32:26.562Z,46.81
2022-08-03T07:34:58.513Z,47.30
2022-08-03T07:37:28.639Z,47.00
2022-08-03T07:39:58.238Z,46.16
2022-08-03T07:42:26.994Z,46.77
2022-08-03T07:44:55.392Z,46.68
2022-08-03T07:47:26.199Z,47.56
2022-08-03T07:50:05.353Z,47.44
2022-08-03T07:52:53.032Z,47.08
2022-08-03T07:55:24.316Z,46.60
2022-08-03T07:58:02.313Z,46.85
2022-08-03T08:00:31.064Z,46.19
2022-08-03T08:02:59.210Z,47.51
2022-08-03T08:05:28.016Z,47.98
2022-08-03T08:07:56.319Z,47.56
2022-08-03T08:10:26.074Z,46.78
2022-08-03T08:12:54.655Z,46.59
2022-08-03T08:15:22.850Z,46.01
2022-08-03T08:17:53.630Z,45.88
2022-08-03T08:20:27.673Z,46.06
2022-08-03T08:22:58.328Z,45.48
2022-08-03T08:25:32.092Z,45.32
2022-08-03T08:28:31.768Z,45.25
2022-08-03T08:30:50.993Z,44.88
2022-08-03T08:33:23.581Z,43.42
2022-08-03T08:35:54.425Z,42.70
2022-08-03T08:38:22.947Z,41.78
2022-08-03T08:40:53.089Z,41.58
2022-08-03T08:43:21.227Z,41.23
2022-08-03T08:45:51.358Z,42.07
2022-08-03T08:48:24.563Z,41.83
2022-08-03T08:50:54.798Z,41.63
2022-08-03T08:53:27.257Z,40.83
2022-08-03T08:56:01.608Z,40.70
2022-08-03T08:58:34.667Z,40.63
2022-08-03T09:01:03.049Z,40.28
2022-08-03T09:03:31.342Z,40.16
2022-08-03T09:06:02.503Z,40.36
2022-08-03T09:08:32.125Z,40.02
2022-08-03T09:11:01.822Z,40.04
2022-08-03T09:13:30.677Z,38.72
2022-08-03T09:16:20.939Z,39.56
2022-08-03T09:18:53.646Z,40.17
2022-08-03T09:21:34.653Z,39.19
2022-08-03T09:24:07.001Z,39.87
2022-08-03T09:26:39.449Z,39.42
2022-08-03T09:29:14.448Z,38.52
2022-08-03T09:31:45.991Z,38.03
2022-08-03T09:34:15.886Z,38.37
2022-08-03T09:36:45.934Z,38.65
2022-08-03T09:39:15.739Z,38.42
2022-08-03T09:41:47.257Z,38.32
2022-08-03T09:44:24.298Z,38.23
2022-08-03T09:46:56.601Z,37.69
2022-08-03T09:49:25.942Z,37.49
2022-08-03T09:52:31.432Z,37.21
2022-08-03T09:54:43.334Z,36.05
2022-08-03T09:57:21.952Z,35.38
2022-08-03T09:59:53.819Z,34.93
2022-08-03T10:02:28.994Z,34.23
2022-08-03T10:04:57.195Z,34.05
2022-08-03T10:07:26.283Z,33.86
2022-08-03T10:10:30.403Z,34.45
2022-08-03T10:12:49.419Z,33.63
2022-08-03T10:16:23.783Z,34.13
2022-08-03T10:18:06.561Z,34.15
2022-08-03T10:20:39.526Z,34.69
2022-08-03T10:23:09.608Z,35.30
2022-08-03T10:25:40.877Z,34.69
2022-08-03T10:28:16.425Z,34.62
2022-08-03T10:30:50.266Z,34.71
2022-08-03T10:33:51.253Z,35.58
2022-08-03T10:36:12.819Z,34.99
2022-08-03T10:38:46.780Z,34.96
2022-08-03T10:41:18.568Z,35.44
2022-08-03T10:43:57.969Z,35.99
2022-08-03T10:46:28.791Z,35.05
2022-08-03T10:48:59.190Z,35.46
2022-08-03T10:51:32.296Z,34.99
2022-08-03T10:54:01.778Z,35.46
2022-08-03T10:56:58.651Z,34.57
2022-08-03T11:00:04.735Z,34.68
2022-08-03T11:03:07.274Z,34.98
2022-08-03T11:05:38.503Z,34.73
2022-08-03T11:08:35.008Z,33.70
2022-08-03T11:11:25.195Z,33.70
2022-08-03T11:13:59.354Z,34.33
2022-08-03T11:16:29.324Z,33.56
2022-08-03T11:18:59.865Z,34.07
2022-08-03T11:21:54.168Z,33.47
2022-08-03T11:25:02.303Z,34.24
2022-08-03T11:27:32.886Z,34.43
2022-08-03T11:30:08.161Z,33.62
2022-08-03T11:32:59.820Z,33.55
2022-08-03T11:35:30.299Z,33.37
2022-08-03T11:38:24.599Z,32.70
2022-08-03T11:40:54.390Z,33.03
2022-08-03T11:43:48.266Z,31.89
2022-08-03T11:46:28.459Z,31.67
2022-08-03T11:49:10.689Z,31.40
2022-08-03T11:51:40.518Z,31.61
2022-08-03T11:54:09.288Z,31.81
2022-08-03T11:56:48.542Z,31.50
2022-08-03T11:59:21.826Z,30.51
2022-08-03T12:01:54.136Z,31.13
2022-08-03T12:04:23.873Z,30.92
2022-08-03T12:07:03.696Z,31.80
2022-08-03T12:09:32.674Z,33.24
2022-08-03T12:12:01.366Z,32.90
2022-08-03T12:14:49.373Z,32.73
2022-08-03T12:17:19.414Z,32.17
2022-08-03T12:19:49.163Z,31.11
2022-08-03T12:22:18.090Z,31.40
2022-08-03T12:24:47.675Z,32.10
2022-08-03T12:27:24.901Z,31.75
2022-08-03T12:29:58.401Z,31.77
2022-08-03T12:32:28.310Z,31.82
2022-08-03T12:35:01.270Z,32.28
2022-08-03T12:37:30.804Z,32.90
2022-08-03T12:40:09.429Z,32.11
2022-08-03T12:42:39.883Z,30.67
2022-08-03T12:45:24.514Z,29.66
2022-08-03T12:47:59.137Z,29.62
2022-08-03T12:50:34.391Z,29.40
2022-08-03T12:53:04.719Z,28.91
2022-08-03T12:55:57.767Z,28.15
2022-08-03T12:58:34.386Z,28.26
2022-08-03T13:01:57.932Z,29.34
2022-08-03T13:04:59.520Z,27.65
2022-08-03T13:07:31.345Z,29.10
2022-08-03T13:09:59.905Z,29.98
2022-08-03T13:12:31.827Z,29.96
2022-08-03T13:15:01.669Z,29.37
2022-08-03T13:17:30.365Z,29.20
2022-08-03T13:19:58.608Z,29.14
2022-08-03T13:22:29.502Z,29.92
2022-08-03T13:25:01.222Z,31.01
2022-08-03T13:28:03.652Z,30.47
2022-08-03T13:30:29.974Z,31.05
2022-08-03T13:33:00.691Z,30.62
2022-08-03T13:35:28.854Z,31.29
2022-08-03T13:37:58.514Z,31.19
2022-08-03T13:40:30.045Z,30.75
2022-08-03T13:42:58.747Z,30.66
2022-08-03T13:45:27.621Z,30.96
2022-08-03T13:47:55.860Z,31.10
2022-08-03T13:50:24.087Z,30.67
2022-08-03T13:52:52.236Z,30.87
2022-08-03T13:55:21.797Z,31.43
2022-08-03T13:58:03.796Z,31.69
2022-08-03T14:00:35.726Z,30.94
2022-08-03T14:03:12.783Z,30.69
2022-08-03T14:05:42.443Z,30.92
2022-08-03T14:08:11.149Z,30.74
2022-08-03T14:10:46.150Z,31.00
2022-08-03T14:13:17.522Z,30.21
2022-08-03T14:15:50.152Z,30.71
2022-08-03T14:18:27.911Z,30.35
2022-08-03T14:21:07.364Z,30.29
2022-08-03T14:23:37.657Z,30.25
2022-08-03T14:26:08.715Z,30.38
2022-08-03T14:28:37.664Z,30.93
2022-08-03T14:31:08.530Z,30.95
2022-08-03T14:33:55.231Z,30.85
2022-08-03T14:36:23.321Z,31.00
2022-08-03T14:38:51.466Z,30.70
2022-08-03T14:41:21.684Z,31.01
2022-08-03T14:44:01.904Z,30.83
2022-08-03T14:46:31.018Z,31.31
2022-08-03T14:50:30.726Z,31.48
2022-08-03T14:51:51.596Z,31.27
2022-08-03T14:54:23.212Z,31.37
2022-08-03T14:56:53.521Z,31.68
2022-08-03T14:59:21.640Z,32.52
2022-08-03T15:02:02.512Z,32.08
2022-08-03T15:04:33.195Z,32.22
2022-08-03T15:07:01.364Z,32.16
2022-08-03T15:09:29.472Z,31.91
2022-08-03T15:11:59.072Z,31.46
2022-08-03T15:14:32.242Z,31.69
2022-08-03T15:17:01.449Z,31.75
2022-08-03T15:20:02.036Z,32.20
2022-08-03T15:22:20.726Z,31.88
2022-08-03T15:24:53.986Z,32.97
2022-08-03T15:27:23.890Z,32.87
2022-08-03T15:30:04.825Z,32.96
2022-08-03T15:32:36.292Z,33.02
2022-08-03T15:35:05.522Z,32.67
2022-08-03T15:37:33.673Z,32.48
2022-08-03T15:40:02.054Z,33.24
2022-08-03T15:42:34.045Z,33.37
2022-08-03T15:45:02.129Z,33.01
2022-08-03T15:47:31.020Z,32.57
2022-08-03T15:49:59.109Z,32.80
2022-08-03T15:52:27.892Z,32.63
2022-08-03T15:54:56.173Z,33.53
2022-08-03T15:57:25.451Z,33.85
2022-08-03T15:59:55.032Z,34.14
2022-08-03T16:02:23.201Z,33.74
2022-08-03T16:04:52.301Z,33.60
2022-08-03T16:07:41.271Z,33.98
2022-08-03T16:10:30.718Z,33.99
2022-08-03T16:12:59.172Z,33.88
2022-08-03T16:15:29.068Z,34.06
2022-08-03T16:17:57.271Z,33.95
2022-08-03T16:20:31.711Z,33.97
2022-08-03T16:23:09.150Z,34.23
2022-08-03T16:25:40.779Z,34.63
2022-08-03T16:28:13.962Z,34.48
2022-08-03T16:30:46.456Z,34.36
2022-08-03T16:33:17.259Z,34.48
2022-08-03T16:35:46.623Z,35.08
2022-08-03T16:38:18.743Z,35.60
2022-08-03T16:40:52.233Z,35.56
2022-08-03T16:43:24.724Z,35.81
2022-08-03T16:45:54.366Z,35.95
2022-08-03T16:48:22.508Z,36.12
2022-08-03T16:50:55.338Z,36.20
2022-08-03T16:53:33.246Z,36.29
2022-08-03T16:56:12.740Z,36.63
2022-08-03T16:58:42.394Z,36.63
2022-08-03T17:01:24.129Z,37.06
2022-08-03T17:04:01.595Z,36.97
2022-08-03T17:06:34.166Z,37.27
2022-08-03T17:09:03.388Z,37.45
2022-08-03T17:11:32.918Z,37.78
2022-08-03T17:14:05.332Z,38.18
2022-08-03T17:16:38.358Z,38.56
2022-08-03T17:19:09.716Z,38.76
2022-08-03T17:21:43.812Z,39.01
2022-08-03T17:24:26.512Z,39.37
2022-08-03T17:26:56.772Z,39.83
2022-08-03T17:29:29.771Z,40.21
2022-08-03T17:32:06.555Z,40.03
2022-08-03T17:34:38.256Z,40.57
2022-08-03T17:37:27.140Z,40.90
2022-08-03T17:39:59.502Z,41.86
2022-08-03T17:42:33.014Z,42.40
2022-08-03T17:45:03.641Z,42.34
2022-08-03T17:47:42.133Z,42.58
2022-08-03T17:53:24.463Z,42.98
2022-08-03T17:56:09.956Z,43.54
2022-08-03T17:59:08.280Z,43.83
2022-08-03T18:02:12.200Z,43.98
2022-08-03T18:05:00.527Z,44.58
2022-08-03T18:07:41.190Z,44.57
2022-08-03T18:10:15.159Z,45.41
2022-08-03T18:12:51.729Z,45.22
2022-08-03T18:15:25.647Z,45.54
2022-08-03T18:18:02.347Z,46.45
2022-08-03T18:20:40.985Z,46.42
2022-08-03T18:23:36.367Z,46.10
2022-08-03T18:26:10.819Z,46.11
2022-08-03T18:28:41.724Z,46.05
2022-08-03T18:31:12.714Z,46.44
2022-08-03T18:34:16.980Z,46.49
2022-08-03T18:36:55.811Z,46.70
2022-08-03T18:39:24.884Z,47.26
2022-08-03T18:41:53.039Z,47.12
2022-08-03T18:44:46.476Z,47.33
2022-08-03T18:47:51.792Z,47.20
2022-08-03T18:50:30.757Z,47.38
2022-08-03T18:53:15.519Z,47.74
2022-08-03T18:56:02.335Z,48.52
2022-08-03T18:58:36.100Z,48.45
2022-08-03T19:01:59.782Z,48.41
2022-08-03T19:04:10.868Z,48.91
2022-08-03T19:06:44.843Z,48.58
2022-08-03T19:09:29.122Z,49.29
2022-08-03T19:12:12.694Z,49.35
2022-08-03T19:14:58.285Z,49.07
2022-08-03T19:17:29.479Z,48.64
2022-08-03T19:19:59.562Z,48.45
2022-08-03T19:22:30.217Z,48.51
2022-08-03T19:25:01.534Z,48.92
2022-08-03T19:27:30.845Z,48.40
2022-08-03T19:30:04.115Z,48.39
2022-08-03T19:32:36.609Z,49.16
2022-08-03T19:35:13.396Z,48.85
2022-08-03T19:37:49.719Z,48.94
2022-08-03T19:40:21.961Z,49.24
2022-08-03T19:43:00.432Z,49.41
2022-08-03T19:45:52.642Z,49.16
2022-08-03T19:48:29.996Z,48.87
2022-08-03T19:50:59.855Z,48.75
2022-08-03T19:53:35.357Z,48.80
2022-08-03T19:56:08.653Z,48.46
2022-08-03T19:58:38.654Z,48.69
2022-08-03T20:01:19.599Z,49.17
2022-08-03T20:03:51.218Z,49.47
2022-08-03T20:06:22.795Z,49.25
2022-08-03T20:08:52.651Z,49.63
2022-08-03T20:11:28.887Z,49.30
2022-08-03T20:13:59.353Z,49.49
2022-08-03T20:16:27.595Z,49.68
2022-08-03T20:18:56.043Z,50.50
2022-08-03T20:21:26.289Z,50.74
2022-08-03T20:24:03.188Z,50.99
2022-08-03T20:26:54.179Z,51.67
2022-08-03T20:30:05.290Z,51.67
2022-08-03T20:32:16.664Z,51.81
2022-08-03T20:34:45.634Z,52.14
2022-08-03T20:37:18.499Z,52.21
2022-08-03T20:39:49.427Z,52.39
2022-08-03T20:42:21.506Z,52.55
2022-08-03T20:45:06.196Z,52.95
2022-08-03T20:47:50.918Z,52.77
2022-08-03T20:50:22.168Z,52.48
2022-08-03T20:52:50.892Z,52.72
2022-08-03T20:55:20.311Z,52.80
2022-08-03T20:57:51.797Z,52.77
2022-08-03T21:00:22.048Z,53.09
2022-08-03T21:02:50.433Z,53.21
2022-08-03T21:05:30.874Z,53.54
2022-08-03T21:08:07.009Z,54.03
2022-08-03T21:10:40.723Z,54.41
2022-08-03T21:13:04.252Z,42.56
2022-08-03T21:16:12.099Z,55.04
2022-08-03T21:18:45.862Z,55.53
2022-08-03T21:21:16.327Z,55.78
2022-08-03T21:23:49.029Z,55.99
2022-08-03T21:26:19.108Z,56.07
2022-08-03T21:28:49.688Z,56.63
2022-08-03T21:31:25.237Z,56.57
2022-08-03T21:33:56.685Z,57.36
2022-08-03T21:36:27.287Z,57.54
2022-08-03T21:38:57.544Z,57.57
2022-08-03T21:41:27.123Z,57.83
2022-08-03T21:43:56.730Z,58.12
2022-08-03T21:46:25.321Z,58.76
2022-08-03T21:49:51.711Z,59.26
2022-08-03T21:51:50.119Z,58.77
2022-08-03T21:54:21.219Z,59.13
2022-08-03T21:56:52.227Z,58.87
2022-08-03T21:59:24.390Z,59.35
2022-08-03T22:01:55.494Z,60.01
2022-08-03T22:04:55.738Z,60.48
2022-08-03T22:07:16.848Z,60.86
2022-08-03T22:09:51.065Z,60.79
2022-08-03T22:12:22.908Z,60.99
2022-08-03T22:15:08.921Z,61.09
2022-08-03T22:17:55.786Z,61.49
2022-08-03T22:20:26.381Z,61.52
2022-08-03T22:22:57.033Z,61.51
2022-08-03T22:25:30.053Z,61.27
2022-08-03T22:28:00.607Z,62.01
2022-08-03T22:30:31.725Z,62.63
2022-08-03T22:33:01.026Z,62.52
2022-08-03T22:35:32.241Z,62.62
2022-08-03T22:38:13.040Z,63.25
2022-08-03T22:40:41.971Z,63.02
2022-08-03T22:43:10.060Z,62.63
2022-08-03T22:45:45.869Z,62.66
2022-08-03T22:48:32.837Z,62.99
2022-08-03T22:51:02.970Z,63.02
2022-08-03T22:53:31.634Z,63.07
2022-08-03T22:56:00.208Z,62.55
2022-08-03T22:58:28.388Z,62.26
2022-08-03T23:01:04.382Z,62.47
2022-08-03T23:03:59.142Z,62.85
2022-08-03T23:06:27.350Z,62.54
2022-08-03T23:08:55.898Z,62.44
2022-08-03T23:11:26.618Z,61.96
2022-08-03T23:13:58.087Z,62.65
2022-08-03T23:16:29.958Z,64.06
2022-08-03T23:19:00.126Z,65.07
2022-08-03T23:22:00.592Z,64.74
2022-08-03T23:24:34.756Z,64.35
2022-08-03T23:27:05.079Z,64.34
2022-08-03T23:29:36.041Z,64.69
2022-08-03T23:32:07.398Z,64.95
2022-08-03T23:34:53.124Z,65.22
2022-08-03T23:37:21.514Z,65.74
2022-08-03T23:39:50.207Z,66.09
2022-08-03T23:42:20.207Z,66.21
2022-08-03T23:44:49.438Z,66.43
2022-08-03T23:47:19.125Z,66.50
2022-08-03T23:49:47.633Z,66.62
2022-08-03T23:52:25.378Z,66.99
2022-08-03T23:55:09.133Z,67.06
2022-08-03T23:57:50.377Z,67.45
